Sisseton, SD (57262)

7:26 AM CST on February 14, 2016 (GMT -0600)
W Browns Valley Twp | | Change Station
CLOSE
Current Station
Personal Weather Station
Location: Beardsley, MN
Elevation: 1089 ft
Nearby Weather Stations
Active Advisory: Winter Weather Advisory

Elev 1089 ft 45.56 °N, 96.74 °W | Updated 7 seconds ago

Snow
Snow
13.1 °F
Feels Like 1 °F
N
8.7
Wind Variable Wind from SSE
Gusts 9.8 mph

Today
High -- | Low -- °F
--% Chance of Precip.
Yesterday
High -- | Low -- °F
Precip. -- in
Pressure 29.95 in
Visibility 7.0 miles
Clouds Clear
Windchill 1 °F
Dew Point 4 °F
Humidity 65%
Rainfall 0.00 in
Snow Depth Not available.
7:32 AM 5:52 PM
Waxing Crescent, 41% visible
METAR KETH 141231Z AUTO 14015KT 7SM -SN CLR M10/M12 A2995 RMK AO2
Pressure 29.95 in
Visibility 7.0 miles
Clouds Clear
Windchill 1 °F
Dew Point 4 °F
Humidity 65%
Rainfall 0.00 in
Snow Depth Not available.
7:32 AM 5:52 PM
Waxing Crescent, 41% visible
METAR KETH 141231Z AUTO 14015KT 7SM -SN CLR M10/M12 A2995 RMK AO2

10-Day Weather Forecast

Almanac

Astronomy

Feb. 14, 2016 Rise Set
Actual Time
Civil Twilight
Nautical Twilight
Astronomical Twilight
Moon
Length of Visible Light
Length of Day
Tomorrow will be .
, % of the Moon is Illuminated

Today's Extremes

State Highs State Lows

Community

WunderPhotos

Upload Photos

1,892,785 photos uploaded!

WunderBlog® & News

Nearby

Air Quality

  Air Quality AQ Index Pollutant
Not available.

Snow Depth

Station Depth Elevation

Earthquake Activity

City Distance Mag. Time & Date
Minimum magnitude displayed is 2.5.

Coastal Water Temperatures

Place Temperature

Stations

Nearby Weather Stations

Station Location Temp. Windchill Dew Point Humidity Wind Precip. Elev Updated Type
                   

Watches & Warnings

Winter Weather Advisory
Issued: 5:57 AM MST Feb. 14, 2016 – National Weather Service

... Winter Weather Advisory remains in effect until noon CST
/11 am MST/ today...

* patchy freezing drizzle is possible through the morning.

* Plan on slippery Road conditions.

Precautionary/preparedness actions...

A Winter Weather Advisory means that periods of snow... sleet... or
freezing rain will cause travel difficulties. Be prepared for
slippery roads and limited visibilities... and use caution while
driving.